sensor_id;sensor_type;location;lat;lon;timestamp;temperature;humidity
48998;DHT22;34807;51.456;7.244;2023-12-28T00:01:50;7.50;99.90
48998;DHT22;34807;51.456;7.244;2023-12-28T00:04:16;7.60;99.90
48998;DHT22;34807;51.456;7.244;2023-12-28T00:06:41;7.60;99.90
48998;DHT22;34807;51.456;7.244;2023-12-28T00:09:07;7.60;99.90
48998;DHT22;34807;51.456;7.244;2023-12-28T00:11:33;7.60;99.90
48998;DHT22;34807;51.456;7.244;2023-12-28T00:13:58;7.60;99.90
48998;DHT22;34807;51.456;7.244;2023-12-28T00:16:24;7.50;99.90
48998;DHT22;34807;51.456;7.244;2023-12-28T00:18:50;7.60;99.90
48998;DHT22;34807;51.456;7.244;2023-12-28T00:21:15;7.60;99.90
48998;DHT22;34807;51.456;7.244;2023-12-28T00:23:41;7.50;99.90
48998;DHT22;34807;51.456;7.244;2023-12-28T00:26:06;7.50;99.90
48998;DHT22;34807;51.456;7.244;2023-12-28T00:28:32;7.50;99.90
48998;DHT22;34807;51.456;7.244;2023-12-28T00:30:57;7.60;99.90
48998;DHT22;34807;51.456;7.244;2023-12-28T00:33:23;7.60;99.90
48998;DHT22;34807;51.456;7.244;2023-12-28T00:35:48;7.50;99.90
48998;DHT22;34807;51.456;7.244;2023-12-28T00:38:14;7.60;99.90
48998;DHT22;34807;51.456;7.244;2023-12-28T00:40:39;7.50;99.90
48998;DHT22;34807;51.456;7.244;2023-12-28T00:43:05;7.60;99.90
48998;DHT22;34807;51.456;7.244;2023-12-28T00:45:30;7.50;99.90
48998;DHT22;34807;51.456;7.244;2023-12-28T00:47:56;7.50;99.90
48998;DHT22;34807;51.456;7.244;2023-12-28T00:50:22;7.50;99.90
48998;DHT22;34807;51.456;7.244;2023-12-28T00:52:47;7.50;99.90
48998;DHT22;34807;51.456;7.244;2023-12-28T00:55:13;7.50;99.90
48998;DHT22;34807;51.456;7.244;2023-12-28T00:57:38;7.60;99.90
48998;DHT22;34807;51.456;7.244;2023-12-28T01:00:04;7.60;99.90
48998;DHT22;34807;51.456;7.244;2023-12-28T01:02:30;7.60;99.90
48998;DHT22;34807;51.456;7.244;2023-12-28T01:04:55;7.60;99.90
48998;DHT22;34807;51.456;7.244;2023-12-28T01:07:21;7.60;99.90
48998;DHT22;34807;51.456;7.244;2023-12-28T01:09:46;7.60;99.90
48998;DHT22;34807;51.456;7.244;2023-12-28T01:12:12;7.60;99.90
48998;DHT22;34807;51.456;7.244;2023-12-28T01:14:37;7.60;99.90
48998;DHT22;34807;51.456;7.244;2023-12-28T01:17:03;7.60;99.90
48998;DHT22;34807;51.456;7.244;2023-12-28T01:19:28;7.60;99.90
48998;DHT22;34807;51.456;7.244;2023-12-28T01:21:54;7.60;99.90
48998;DHT22;34807;51.456;7.244;2023-12-28T01:24:19;7.60;99.90
48998;DHT22;34807;51.456;7.244;2023-12-28T01:26:45;7.60;99.90
48998;DHT22;34807;51.456;7.244;2023-12-28T01:29:10;7.60;99.90
48998;DHT22;34807;51.456;7.244;2023-12-28T01:31:36;7.60;99.90
48998;DHT22;34807;51.456;7.244;2023-12-28T01:34:03;7.60;99.90
48998;DHT22;34807;51.456;7.244;2023-12-28T01:36:28;7.60;99.90
48998;DHT22;34807;51.456;7.244;2023-12-28T01:38:55;7.60;99.90
48998;DHT22;34807;51.456;7.244;2023-12-28T01:41:21;7.60;99.90
48998;DHT22;34807;51.456;7.244;2023-12-28T01:43:46;7.70;99.90
48998;DHT22;34807;51.456;7.244;2023-12-28T01:46:16;7.70;99.90
48998;DHT22;34807;51.456;7.244;2023-12-28T01:48:42;7.70;99.90
48998;DHT22;34807;51.456;7.244;2023-12-28T01:51:09;7.70;99.90
48998;DHT22;34807;51.456;7.244;2023-12-28T01:53:35;7.70;99.90
48998;DHT22;34807;51.456;7.244;2023-12-28T01:56:00;7.70;99.90
48998;DHT22;34807;51.456;7.244;2023-12-28T01:58:26;7.70;99.90
48998;DHT22;34807;51.456;7.244;2023-12-28T02:00:51;7.70;99.90
48998;DHT22;34807;51.456;7.244;2023-12-28T02:03:17;7.70;99.90
48998;DHT22;34807;51.456;7.244;2023-12-28T02:05:43;7.70;99.90
48998;DHT22;34807;51.456;7.244;2023-12-28T02:08:08;7.70;99.90
48998;DHT22;34807;51.456;7.244;2023-12-28T02:10:34;7.80;99.90
48998;DHT22;34807;51.456;7.244;2023-12-28T02:12:59;7.70;99.90
48998;DHT22;34807;51.456;7.244;2023-12-28T02:15:25;7.80;99.90
48998;DHT22;34807;51.456;7.244;2023-12-28T02:17:55;7.80;99.90
48998;DHT22;34807;51.456;7.244;2023-12-28T02:20:23;7.80;99.90
48998;DHT22;34807;51.456;7.244;2023-12-28T02:22:49;7.80;99.90
48998;DHT22;34807;51.456;7.244;2023-12-28T02:25:15;7.80;99.90
48998;DHT22;34807;51.456;7.244;2023-12-28T02:27:44;7.80;99.90
48998;DHT22;34807;51.456;7.244;2023-12-28T02:30:11;7.80;99.90
48998;DHT22;34807;51.456;7.244;2023-12-28T02:35:33;7.80;99.90
48998;DHT22;34807;51.456;7.244;2023-12-28T02:38:08;7.80;99.90
48998;DHT22;34807;51.456;7.244;2023-12-28T02:40:43;7.80;99.90
48998;DHT22;34807;51.456;7.244;2023-12-28T02:43:09;7.80;99.90
48998;DHT22;34807;51.456;7.244;2023-12-28T02:45:35;7.80;99.90
48998;DHT22;34807;51.456;7.244;2023-12-28T02:48:01;7.90;99.90
48998;DHT22;34807;51.456;7.244;2023-12-28T02:50:27;7.80;99.90
48998;DHT22;34807;51.456;7.244;2023-12-28T02:52:52;7.90;99.90
48998;DHT22;34807;51.456;7.244;2023-12-28T02:55:18;7.90;99.90
48998;DHT22;34807;51.456;7.244;2023-12-28T02:57:44;7.80;99.90
48998;DHT22;34807;51.456;7.244;2023-12-28T03:00:09;7.90;99.90
48998;DHT22;34807;51.456;7.244;2023-12-28T03:02:36;7.90;99.90
48998;DHT22;34807;51.456;7.244;2023-12-28T03:05:03;7.90;99.90
48998;DHT22;34807;51.456;7.244;2023-12-28T03:07:29;7.80;99.90
48998;DHT22;34807;51.456;7.244;2023-12-28T03:09:54;7.90;99.90
48998;DHT22;34807;51.456;7.244;2023-12-28T03:12:20;7.90;99.90
48998;DHT22;34807;51.456;7.244;2023-12-28T03:14:45;7.80;99.90
48998;DHT22;34807;51.456;7.244;2023-12-28T03:17:11;7.90;99.90
48998;DHT22;34807;51.456;7.244;2023-12-28T03:19:37;7.90;99.90
48998;DHT22;34807;51.456;7.244;2023-12-28T03:22:03;7.80;99.90
48998;DHT22;34807;51.456;7.244;2023-12-28T03:24:28;7.90;99.90
48998;DHT22;34807;51.456;7.244;2023-12-28T03:26:54;7.90;99.90
48998;DHT22;34807;51.456;7.244;2023-12-28T03:29:19;7.90;99.90
48998;DHT22;34807;51.456;7.244;2023-12-28T03:31:45;7.90;99.90
48998;DHT22;34807;51.456;7.244;2023-12-28T03:34:10;7.90;99.90
48998;DHT22;34807;51.456;7.244;2023-12-28T03:36:36;7.90;99.90
48998;DHT22;34807;51.456;7.244;2023-12-28T03:39:01;7.90;99.90
48998;DHT22;34807;51.456;7.244;2023-12-28T03:41:28;7.90;99.90
48998;DHT22;34807;51.456;7.244;2023-12-28T03:43:55;7.90;99.90
48998;DHT22;34807;51.456;7.244;2023-12-28T03:46:20;7.90;99.90
48998;DHT22;34807;51.456;7.244;2023-12-28T03:48:46;7.90;99.90
48998;DHT22;34807;51.456;7.244;2023-12-28T03:51:15;7.90;99.90
48998;DHT22;34807;51.456;7.244;2023-12-28T03:53:41;7.90;99.90
48998;DHT22;34807;51.456;7.244;2023-12-28T03:56:06;7.90;99.90
48998;DHT22;34807;51.456;7.244;2023-12-28T03:58:32;7.90;99.90
48998;DHT22;34807;51.456;7.244;2023-12-28T04:00:57;7.90;99.90
48998;DHT22;34807;51.456;7.244;2023-12-28T04:03:23;7.90;99.90
48998;DHT22;34807;51.456;7.244;2023-12-28T04:05:48;7.90;99.90
48998;DHT22;34807;51.456;7.244;2023-12-28T04:08:14;7.90;99.90
48998;DHT22;34807;51.456;7.244;2023-12-28T04:10:39;8.00;99.90
48998;DHT22;34807;51.456;7.244;2023-12-28T04:13:05;7.90;99.90
48998;DHT22;34807;51.456;7.244;2023-12-28T04:15:30;8.00;99.90
48998;DHT22;34807;51.456;7.244;2023-12-28T04:17:56;8.00;99.90
48998;DHT22;34807;51.456;7.244;2023-12-28T04:20:22;8.00;99.90
48998;DHT22;34807;51.456;7.244;2023-12-28T04:22:48;8.00;99.90
48998;DHT22;34807;51.456;7.244;2023-12-28T04:25:13;8.00;99.90
48998;DHT22;34807;51.456;7.244;2023-12-28T04:27:39;8.00;99.90
48998;DHT22;34807;51.456;7.244;2023-12-28T04:30:05;8.00;99.90
48998;DHT22;34807;51.456;7.244;2023-12-28T04:32:33;8.00;99.90
48998;DHT22;34807;51.456;7.244;2023-12-28T04:34:59;8.00;99.90
48998;DHT22;34807;51.456;7.244;2023-12-28T04:37:24;8.00;99.90
48998;DHT22;34807;51.456;7.244;2023-12-28T04:39:52;8.00;99.90
48998;DHT22;34807;51.456;7.244;2023-12-28T04:42:18;8.00;99.90
48998;DHT22;34807;51.456;7.244;2023-12-28T04:44:44;8.00;99.90
48998;DHT22;34807;51.456;7.244;2023-12-28T04:47:09;8.10;99.90
48998;DHT22;34807;51.456;7.244;2023-12-28T04:49:35;8.10;99.90
48998;DHT22;34807;51.456;7.244;2023-12-28T04:52:00;8.10;99.90
48998;DHT22;34807;51.456;7.244;2023-12-28T04:54:26;8.10;99.90
48998;DHT22;34807;51.456;7.244;2023-12-28T04:56:51;8.10;99.90
48998;DHT22;34807;51.456;7.244;2023-12-28T04:59:17;8.10;99.90
48998;DHT22;34807;51.456;7.244;2023-12-28T05:01:42;8.10;99.90
48998;DHT22;34807;51.456;7.244;2023-12-28T05:04:08;8.10;99.90
48998;DHT22;34807;51.456;7.244;2023-12-28T05:06:34;8.10;99.90
48998;DHT22;34807;51.456;7.244;2023-12-28T05:08:59;8.10;99.90
48998;DHT22;34807;51.456;7.244;2023-12-28T05:11:25;8.10;99.90
48998;DHT22;34807;51.456;7.244;2023-12-28T05:13:50;8.10;99.90
48998;DHT22;34807;51.456;7.244;2023-12-28T05:16:16;8.10;99.90
48998;DHT22;34807;51.456;7.244;2023-12-28T05:18:41;8.20;99.90
48998;DHT22;34807;51.456;7.244;2023-12-28T05:21:07;8.20;99.90
48998;DHT22;34807;51.456;7.244;2023-12-28T05:23:33;8.20;99.90
48998;DHT22;34807;51.456;7.244;2023-12-28T05:25:58;8.20;99.90
48998;DHT22;34807;51.456;7.244;2023-12-28T05:28:24;8.20;99.90
48998;DHT22;34807;51.456;7.244;2023-12-28T05:30:49;8.20;99.90
48998;DHT22;34807;51.456;7.244;2023-12-28T05:33:15;8.20;99.90
48998;DHT22;34807;51.456;7.244;2023-12-28T05:35:40;8.20;99.90
48998;DHT22;34807;51.456;7.244;2023-12-28T05:38:06;8.20;99.90
48998;DHT22;34807;51.456;7.244;2023-12-28T05:40:31;8.20;99.90
48998;DHT22;34807;51.456;7.244;2023-12-28T05:42:57;8.20;99.90
48998;DHT22;34807;51.456;7.244;2023-12-28T05:45:22;8.20;99.90
48998;DHT22;34807;51.456;7.244;2023-12-28T05:47:48;8.20;99.90
48998;DHT22;34807;51.456;7.244;2023-12-28T05:50:13;8.20;99.90
48998;DHT22;34807;51.456;7.244;2023-12-28T05:52:39;8.20;99.90
48998;DHT22;34807;51.456;7.244;2023-12-28T05:55:04;8.20;99.90
48998;DHT22;34807;51.456;7.244;2023-12-28T05:57:30;8.20;99.90
48998;DHT22;34807;51.456;7.244;2023-12-28T05:59:56;8.20;99.90
48998;DHT22;34807;51.456;7.244;2023-12-28T06:02:22;8.20;99.90
48998;DHT22;34807;51.456;7.244;2023-12-28T06:04:48;8.20;99.90
48998;DHT22;34807;51.456;7.244;2023-12-28T06:07:13;8.30;99.90
48998;DHT22;34807;51.456;7.244;2023-12-28T06:09:39;8.30;99.90
48998;DHT22;34807;51.456;7.244;2023-12-28T06:12:05;8.30;99.90
48998;DHT22;34807;51.456;7.244;2023-12-28T06:14:30;8.20;99.90
48998;DHT22;34807;51.456;7.244;2023-12-28T06:16:56;8.30;99.90
48998;DHT22;34807;51.456;7.244;2023-12-28T06:19:21;8.30;99.90
48998;DHT22;34807;51.456;7.244;2023-12-28T06:21:50;8.30;99.90
48998;DHT22;34807;51.456;7.244;2023-12-28T06:24:15;8.30;99.90
48998;DHT22;34807;51.456;7.244;2023-12-28T06:26:41;8.30;99.90
48998;DHT22;34807;51.456;7.244;2023-12-28T06:29:07;8.30;99.90
48998;DHT22;34807;51.456;7.244;2023-12-28T06:31:33;8.30;99.90
48998;DHT22;34807;51.456;7.244;2023-12-28T06:34:04;8.30;99.90
48998;DHT22;34807;51.456;7.244;2023-12-28T06:36:30;8.30;99.90
48998;DHT22;34807;51.456;7.244;2023-12-28T06:38:56;8.20;99.90
48998;DHT22;34807;51.456;7.244;2023-12-28T06:41:21;8.30;99.90
48998;DHT22;34807;51.456;7.244;2023-12-28T06:43:47;8.30;99.90
48998;DHT22;34807;51.456;7.244;2023-12-28T06:46:13;8.30;99.90
48998;DHT22;34807;51.456;7.244;2023-12-28T06:48:38;8.30;99.90
48998;DHT22;34807;51.456;7.244;2023-12-28T06:51:09;8.30;99.90
48998;DHT22;34807;51.456;7.244;2023-12-28T06:53:34;8.30;99.90
48998;DHT22;34807;51.456;7.244;2023-12-28T06:56:00;8.30;99.90
48998;DHT22;34807;51.456;7.244;2023-12-28T06:58:25;8.20;99.90
48998;DHT22;34807;51.456;7.244;2023-12-28T07:00:51;8.30;99.90
48998;DHT22;34807;51.456;7.244;2023-12-28T07:03:16;8.30;99.90
48998;DHT22;34807;51.456;7.244;2023-12-28T07:05:42;8.20;99.90
48998;DHT22;34807;51.456;7.244;2023-12-28T07:08:07;8.20;99.90
48998;DHT22;34807;51.456;7.244;2023-12-28T07:10:33;8.20;99.90
48998;DHT22;34807;51.456;7.244;2023-12-28T07:12:58;8.20;99.90
48998;DHT22;34807;51.456;7.244;2023-12-28T07:15:24;8.20;99.90
48998;DHT22;34807;51.456;7.244;2023-12-28T07:17:50;8.20;99.90
48998;DHT22;34807;51.456;7.244;2023-12-28T07:20:16;8.20;99.90
48998;DHT22;34807;51.456;7.244;2023-12-28T07:22:41;8.20;99.90
48998;DHT22;34807;51.456;7.244;2023-12-28T07:25:07;8.20;99.90
48998;DHT22;34807;51.456;7.244;2023-12-28T07:27:33;8.20;99.90
48998;DHT22;34807;51.456;7.244;2023-12-28T07:29:59;8.20;99.90
48998;DHT22;34807;51.456;7.244;2023-12-28T07:32:25;8.20;99.90
48998;DHT22;34807;51.456;7.244;2023-12-28T07:34:54;8.20;99.90
48998;DHT22;34807;51.456;7.244;2023-12-28T07:37:20;8.20;99.90
48998;DHT22;34807;51.456;7.244;2023-12-28T07:39:46;8.20;99.90
48998;DHT22;34807;51.456;7.244;2023-12-28T07:42:12;8.20;99.90
48998;DHT22;34807;51.456;7.244;2023-12-28T07:44:37;8.20;99.90
48998;DHT22;34807;51.456;7.244;2023-12-28T07:47:03;8.20;99.90
48998;DHT22;34807;51.456;7.244;2023-12-28T07:49:30;8.20;99.90
48998;DHT22;34807;51.456;7.244;2023-12-28T07:51:55;8.20;99.90
48998;DHT22;34807;51.456;7.244;2023-12-28T07:54:21;8.20;99.90
48998;DHT22;34807;51.456;7.244;2023-12-28T07:56:47;8.20;99.90
48998;DHT22;34807;51.456;7.244;2023-12-28T07:59:12;8.20;99.90
48998;DHT22;34807;51.456;7.244;2023-12-28T08:01:38;8.20;99.90
48998;DHT22;34807;51.456;7.244;2023-12-28T08:04:03;8.20;99.90
48998;DHT22;34807;51.456;7.244;2023-12-28T08:06:29;8.20;99.90
48998;DHT22;34807;51.456;7.244;2023-12-28T08:08:57;8.20;99.90
48998;DHT22;34807;51.456;7.244;2023-12-28T08:11:24;8.20;99.90
48998;DHT22;34807;51.456;7.244;2023-12-28T08:13:50;8.20;99.90
48998;DHT22;34807;51.456;7.244;2023-12-28T08:16:15;8.20;99.90
48998;DHT22;34807;51.456;7.244;2023-12-28T08:18:41;8.20;99.90
48998;DHT22;34807;51.456;7.244;2023-12-28T08:21:06;8.20;99.90
48998;DHT22;34807;51.456;7.244;2023-12-28T08:23:32;8.20;99.90
48998;DHT22;34807;51.456;7.244;2023-12-28T08:25:57;8.30;99.90
48998;DHT22;34807;51.456;7.244;2023-12-28T08:28:22;8.30;99.90
48998;DHT22;34807;51.456;7.244;2023-12-28T08:30:48;8.30;99.90
48998;DHT22;34807;51.456;7.244;2023-12-28T08:33:14;8.30;99.90
48998;DHT22;34807;51.456;7.244;2023-12-28T08:35:39;8.30;99.90
48998;DHT22;34807;51.456;7.244;2023-12-28T08:38:05;8.30;99.90
48998;DHT22;34807;51.456;7.244;2023-12-28T08:40:31;8.30;99.90
48998;DHT22;34807;51.456;7.244;2023-12-28T08:42:57;8.30;99.90
48998;DHT22;34807;51.456;7.244;2023-12-28T08:45:22;8.40;99.90
48998;DHT22;34807;51.456;7.244;2023-12-28T08:47:48;8.40;99.90
48998;DHT22;34807;51.456;7.244;2023-12-28T08:50:14;8.40;99.90
48998;DHT22;34807;51.456;7.244;2023-12-28T08:52:39;8.40;99.90
48998;DHT22;34807;51.456;7.244;2023-12-28T08:55:05;8.40;99.90
48998;DHT22;34807;51.456;7.244;2023-12-28T08:57:30;8.40;99.90
48998;DHT22;34807;51.456;7.244;2023-12-28T08:59:56;8.40;99.90
48998;DHT22;34807;51.456;7.244;2023-12-28T09:02:22;8.40;99.90
48998;DHT22;34807;51.456;7.244;2023-12-28T09:04:48;8.40;99.90
48998;DHT22;34807;51.456;7.244;2023-12-28T09:07:14;8.40;99.90
48998;DHT22;34807;51.456;7.244;2023-12-28T09:09:40;8.50;99.90
48998;DHT22;34807;51.456;7.244;2023-12-28T09:12:06;8.50;99.90
48998;DHT22;34807;51.456;7.244;2023-12-28T09:14:32;8.50;99.90
48998;DHT22;34807;51.456;7.244;2023-12-28T09:16:57;8.50;99.90
48998;DHT22;34807;51.456;7.244;2023-12-28T09:19:23;8.50;99.90
48998;DHT22;34807;51.456;7.244;2023-12-28T09:21:48;8.50;99.90
48998;DHT22;34807;51.456;7.244;2023-12-28T09:24:14;8.50;99.90
48998;DHT22;34807;51.456;7.244;2023-12-28T09:26:41;8.60;99.90
48998;DHT22;34807;51.456;7.244;2023-12-28T09:29:06;8.60;99.90
48998;DHT22;34807;51.456;7.244;2023-12-28T09:31:32;8.60;99.90
48998;DHT22;34807;51.456;7.244;2023-12-28T09:33:57;8.60;99.90
48998;DHT22;34807;51.456;7.244;2023-12-28T09:36:23;8.60;99.90
48998;DHT22;34807;51.456;7.244;2023-12-28T09:38:48;8.60;99.90
48998;DHT22;34807;51.456;7.244;2023-12-28T09:41:16;8.60;99.90
48998;DHT22;34807;51.456;7.244;2023-12-28T09:46:15;8.60;99.90
48998;DHT22;34807;51.456;7.244;2023-12-28T09:48:40;8.70;99.90
48998;DHT22;34807;51.456;7.244;2023-12-28T09:51:06;8.70;99.90
48998;DHT22;34807;51.456;7.244;2023-12-28T09:53:31;8.70;99.90
48998;DHT22;34807;51.456;7.244;2023-12-28T09:55:57;8.70;99.90
48998;DHT22;34807;51.456;7.244;2023-12-28T09:58:23;8.80;99.90
48998;DHT22;34807;51.456;7.244;2023-12-28T10:00:49;8.80;99.90
48998;DHT22;34807;51.456;7.244;2023-12-28T10:03:15;8.80;99.90
48998;DHT22;34807;51.456;7.244;2023-12-28T10:05:41;8.80;99.90
48998;DHT22;34807;51.456;7.244;2023-12-28T10:08:07;8.80;99.90
48998;DHT22;34807;51.456;7.244;2023-12-28T10:10:33;8.80;99.90
48998;DHT22;34807;51.456;7.244;2023-12-28T10:12:59;8.80;99.90
48998;DHT22;34807;51.456;7.244;2023-12-28T10:15:24;8.80;99.90
48998;DHT22;34807;51.456;7.244;2023-12-28T10:17:53;8.80;99.90
48998;DHT22;34807;51.456;7.244;2023-12-28T10:20:19;8.90;99.90
48998;DHT22;34807;51.456;7.244;2023-12-28T10:22:45;8.90;99.90
48998;DHT22;34807;51.456;7.244;2023-12-28T10:25:11;8.90;99.90
48998;DHT22;34807;51.456;7.244;2023-12-28T10:27:38;8.90;99.90
48998;DHT22;34807;51.456;7.244;2023-12-28T10:30:03;8.90;99.90
48998;DHT22;34807;51.456;7.244;2023-12-28T10:32:29;8.90;99.90
48998;DHT22;34807;51.456;7.244;2023-12-28T10:34:55;8.90;99.90
48998;DHT22;34807;51.456;7.244;2023-12-28T10:37:20;8.90;99.90
48998;DHT22;34807;51.456;7.244;2023-12-28T10:39:47;9.00;99.90
48998;DHT22;34807;51.456;7.244;2023-12-28T10:42:16;9.00;99.90
48998;DHT22;34807;51.456;7.244;2023-12-28T10:44:47;9.00;99.90
48998;DHT22;34807;51.456;7.244;2023-12-28T10:47:15;9.00;99.90
48998;DHT22;34807;51.456;7.244;2023-12-28T10:49:42;9.00;99.90
48998;DHT22;34807;51.456;7.244;2023-12-28T10:52:09;9.10;99.90
48998;DHT22;34807;51.456;7.244;2023-12-28T10:54:44;9.00;99.90
48998;DHT22;34807;51.456;7.244;2023-12-28T11:02:06;9.10;99.90
48998;DHT22;34807;51.456;7.244;2023-12-28T11:06:59;9.10;99.90
48998;DHT22;34807;51.456;7.244;2023-12-28T11:09:26;9.10;99.90
48998;DHT22;34807;51.456;7.244;2023-12-28T11:11:55;9.10;99.90
48998;DHT22;34807;51.456;7.244;2023-12-28T11:14:24;9.20;99.90
48998;DHT22;34807;51.456;7.244;2023-12-28T11:16:50;9.20;99.90
48998;DHT22;34807;51.456;7.244;2023-12-28T11:19:15;9.20;99.90
48998;DHT22;34807;51.456;7.244;2023-12-28T11:21:41;9.20;99.90
48998;DHT22;34807;51.456;7.244;2023-12-28T11:24:08;9.30;99.90
48998;DHT22;34807;51.456;7.244;2023-12-28T11:26:33;9.30;99.90
48998;DHT22;34807;51.456;7.244;2023-12-28T11:29:00;9.30;99.90
48998;DHT22;34807;51.456;7.244;2023-12-28T11:31:25;9.30;99.90
48998;DHT22;34807;51.456;7.244;2023-12-28T11:33:51;9.30;99.90
48998;DHT22;34807;51.456;7.244;2023-12-28T11:36:26;9.30;99.90
48998;DHT22;34807;51.456;7.244;2023-12-28T11:38:59;9.40;99.90
48998;DHT22;34807;51.456;7.244;2023-12-28T11:41:26;9.40;99.90
48998;DHT22;34807;51.456;7.244;2023-12-28T11:43:53;9.40;99.90
48998;DHT22;34807;51.456;7.244;2023-12-28T11:46:20;9.40;99.90
48998;DHT22;34807;51.456;7.244;2023-12-28T11:48:45;9.40;99.90
48998;DHT22;34807;51.456;7.244;2023-12-28T11:51:11;9.40;99.90
48998;DHT22;34807;51.456;7.244;2023-12-28T11:53:36;9.50;99.90
48998;DHT22;34807;51.456;7.244;2023-12-28T11:56:03;9.40;99.90
48998;DHT22;34807;51.456;7.244;2023-12-28T11:58:30;9.50;99.90
48998;DHT22;34807;51.456;7.244;2023-12-28T12:00:55;9.40;99.90
48998;DHT22;34807;51.456;7.244;2023-12-28T12:03:24;9.50;99.90
48998;DHT22;34807;51.456;7.244;2023-12-28T12:05:50;9.50;99.90
48998;DHT22;34807;51.456;7.244;2023-12-28T12:08:15;9.50;99.90
48998;DHT22;34807;51.456;7.244;2023-12-28T12:10:41;9.50;99.90
48998;DHT22;34807;51.456;7.244;2023-12-28T12:13:07;9.50;99.90
48998;DHT22;34807;51.456;7.244;2023-12-28T12:15:33;9.60;99.90
48998;DHT22;34807;51.456;7.244;2023-12-28T12:17:58;9.60;99.90
48998;DHT22;34807;51.456;7.244;2023-12-28T12:20:24;9.60;99.90
48998;DHT22;34807;51.456;7.244;2023-12-28T12:22:49;9.60;99.90
48998;DHT22;34807;51.456;7.244;2023-12-28T12:25:16;9.60;99.90
48998;DHT22;34807;51.456;7.244;2023-12-28T12:27:41;9.60;99.90
48998;DHT22;34807;51.456;7.244;2023-12-28T12:30:07;9.60;99.90
48998;DHT22;34807;51.456;7.244;2023-12-28T12:32:33;9.60;99.90
48998;DHT22;34807;51.456;7.244;2023-12-28T12:35:02;9.60;99.90
48998;DHT22;34807;51.456;7.244;2023-12-28T12:37:28;9.60;99.90
48998;DHT22;34807;51.456;7.244;2023-12-28T12:39:54;9.70;99.90
48998;DHT22;34807;51.456;7.244;2023-12-28T12:42:19;9.60;99.90
48998;DHT22;34807;51.456;7.244;2023-12-28T12:44:45;9.70;99.90
48998;DHT22;34807;51.456;7.244;2023-12-28T12:47:12;9.70;99.90
48998;DHT22;34807;51.456;7.244;2023-12-28T12:49:38;9.70;99.90
48998;DHT22;34807;51.456;7.244;2023-12-28T12:52:03;9.70;99.90
48998;DHT22;34807;51.456;7.244;2023-12-28T12:54:29;9.80;99.90
48998;DHT22;34807;51.456;7.244;2023-12-28T12:56:54;9.70;99.90
48998;DHT22;34807;51.456;7.244;2023-12-28T12:59:22;9.70;99.90
48998;DHT22;34807;51.456;7.244;2023-12-28T13:01:48;9.80;99.90
48998;DHT22;34807;51.456;7.244;2023-12-28T13:04:13;9.80;99.90
48998;DHT22;34807;51.456;7.244;2023-12-28T13:06:41;9.80;99.90
48998;DHT22;34807;51.456;7.244;2023-12-28T13:09:06;9.80;99.90
48998;DHT22;34807;51.456;7.244;2023-12-28T13:11:33;9.80;99.90
48998;DHT22;34807;51.456;7.244;2023-12-28T13:13:59;9.80;99.90
48998;DHT22;34807;51.456;7.244;2023-12-28T13:16:25;9.80;99.90
48998;DHT22;34807;51.456;7.244;2023-12-28T13:18:50;9.80;99.90
48998;DHT22;34807;51.456;7.244;2023-12-28T13:21:16;9.80;99.90
48998;DHT22;34807;51.456;7.244;2023-12-28T13:23:41;9.80;99.90
48998;DHT22;34807;51.456;7.244;2023-12-28T13:26:07;9.80;99.90
48998;DHT22;34807;51.456;7.244;2023-12-28T13:28:32;9.80;99.90
48998;DHT22;34807;51.456;7.244;2023-12-28T13:30:58;9.80;99.90
48998;DHT22;34807;51.456;7.244;2023-12-28T13:33:24;9.80;99.90
48998;DHT22;34807;51.456;7.244;2023-12-28T13:35:50;9.80;99.90
48998;DHT22;34807;51.456;7.244;2023-12-28T13:38:15;9.80;99.90
48998;DHT22;34807;51.456;7.244;2023-12-28T13:40:42;9.80;99.90
48998;DHT22;34807;51.456;7.244;2023-12-28T13:43:07;9.80;99.90
48998;DHT22;34807;51.456;7.244;2023-12-28T13:45:33;9.80;99.90
48998;DHT22;34807;51.456;7.244;2023-12-28T13:47:58;9.80;99.90
48998;DHT22;34807;51.456;7.244;2023-12-28T13:50:24;9.80;99.90
48998;DHT22;34807;51.456;7.244;2023-12-28T13:52:49;9.80;99.90
48998;DHT22;34807;51.456;7.244;2023-12-28T13:55:15;9.80;99.90
48998;DHT22;34807;51.456;7.244;2023-12-28T13:57:40;9.80;99.90
48998;DHT22;34807;51.456;7.244;2023-12-28T14:00:06;9.80;99.90
48998;DHT22;34807;51.456;7.244;2023-12-28T14:02:32;9.80;99.90
48998;DHT22;34807;51.456;7.244;2023-12-28T14:04:58;9.80;99.90
48998;DHT22;34807;51.456;7.244;2023-12-28T14:07:24;9.80;99.90
48998;DHT22;34807;51.456;7.244;2023-12-28T14:09:50;9.80;99.90
48998;DHT22;34807;51.456;7.244;2023-12-28T14:12:15;9.80;99.90
48998;DHT22;34807;51.456;7.244;2023-12-28T14:14:41;9.70;99.90
48998;DHT22;34807;51.456;7.244;2023-12-28T14:17:06;9.70;99.90
48998;DHT22;34807;51.456;7.244;2023-12-28T14:19:32;9.70;99.90
48998;DHT22;34807;51.456;7.244;2023-12-28T14:21:57;9.70;99.90
48998;DHT22;34807;51.456;7.244;2023-12-28T14:24:23;9.70;99.90
48998;DHT22;34807;51.456;7.244;2023-12-28T14:26:49;9.70;99.90
48998;DHT22;34807;51.456;7.244;2023-12-28T14:29:16;9.70;99.90
48998;DHT22;34807;51.456;7.244;2023-12-28T14:31:42;9.70;99.90
48998;DHT22;34807;51.456;7.244;2023-12-28T14:34:09;9.70;99.90
48998;DHT22;34807;51.456;7.244;2023-12-28T14:36:36;9.70;99.90
48998;DHT22;34807;51.456;7.244;2023-12-28T14:39:08;9.70;99.90
48998;DHT22;34807;51.456;7.244;2023-12-28T14:41:34;9.70;99.90
48998;DHT22;34807;51.456;7.244;2023-12-28T14:44:00;9.60;99.90
48998;DHT22;34807;51.456;7.244;2023-12-28T14:46:26;9.60;99.90
48998;DHT22;34807;51.456;7.244;2023-12-28T14:48:52;9.60;99.90
48998;DHT22;34807;51.456;7.244;2023-12-28T14:51:17;9.60;99.90
48998;DHT22;34807;51.456;7.244;2023-12-28T14:53:43;9.60;99.90
48998;DHT22;34807;51.456;7.244;2023-12-28T14:56:09;9.60;99.90
48998;DHT22;34807;51.456;7.244;2023-12-28T14:58:35;9.60;99.90
48998;DHT22;34807;51.456;7.244;2023-12-28T15:01:01;9.60;99.90
48998;DHT22;34807;51.456;7.244;2023-12-28T15:03:26;9.50;99.90
48998;DHT22;34807;51.456;7.244;2023-12-28T15:05:52;9.50;99.90
48998;DHT22;34807;51.456;7.244;2023-12-28T15:08:18;9.50;99.90
48998;DHT22;34807;51.456;7.244;2023-12-28T15:10:44;9.50;99.90
48998;DHT22;34807;51.456;7.244;2023-12-28T15:13:10;9.50;99.90
48998;DHT22;34807;51.456;7.244;2023-12-28T15:15:36;9.50;99.90
48998;DHT22;34807;51.456;7.244;2023-12-28T15:18:02;9.50;99.90
48998;DHT22;34807;51.456;7.244;2023-12-28T15:20:27;9.50;99.90
48998;DHT22;34807;51.456;7.244;2023-12-28T15:22:53;9.40;99.90
48998;DHT22;34807;51.456;7.244;2023-12-28T15:25:19;9.40;99.90
48998;DHT22;34807;51.456;7.244;2023-12-28T15:27:45;9.40;99.90
48998;DHT22;34807;51.456;7.244;2023-12-28T15:30:11;9.40;99.90
48998;DHT22;34807;51.456;7.244;2023-12-28T15:32:39;9.40;99.90
48998;DHT22;34807;51.456;7.244;2023-12-28T15:35:05;9.40;99.90
48998;DHT22;34807;51.456;7.244;2023-12-28T15:37:33;9.30;99.90
48998;DHT22;34807;51.456;7.244;2023-12-28T15:39:59;9.30;99.90
48998;DHT22;34807;51.456;7.244;2023-12-28T15:42:24;9.30;99.90
48998;DHT22;34807;51.456;7.244;2023-12-28T15:44:50;9.30;99.90
48998;DHT22;34807;51.456;7.244;2023-12-28T15:47:16;9.30;99.90
48998;DHT22;34807;51.456;7.244;2023-12-28T15:49:43;9.20;99.90